createdAt,value
2022-08-10T00:01:36.437Z,18.20
2022-08-10T00:04:05.316Z,18.20
2022-08-10T00:06:33.040Z,18.10
2022-08-10T00:09:00.386Z,18.10
2022-08-10T00:11:29.097Z,18.10
2022-08-10T00:13:57.890Z,18.10
2022-08-10T00:16:28.185Z,18.10
2022-08-10T00:18:55.769Z,18.10
2022-08-10T00:21:23.323Z,18.00
2022-08-10T00:23:54.987Z,18.00
2022-08-10T00:26:24.031Z,18.00
2022-08-10T00:28:51.412Z,18.00
2022-08-10T00:31:19.139Z,18.00
2022-08-10T00:33:46.450Z,18.00
2022-08-10T00:36:14.053Z,18.10
2022-08-10T00:38:42.754Z,18.10
2022-08-10T00:41:10.151Z,18.10
2022-08-10T00:43:37.698Z,18.10
2022-08-10T00:46:05.289Z,18.00
2022-08-10T00:48:32.965Z,18.00
2022-08-10T00:51:01.692Z,18.00
2022-08-10T00:53:29.496Z,18.00
2022-08-10T00:57:14.270Z,18.00
2022-08-10T00:58:48.238Z,17.80
2022-08-10T01:02:08.245Z,17.90
2022-08-10T01:04:54.248Z,18.00
2022-08-10T01:07:27.868Z,18.00
2022-08-10T01:10:30.908Z,18.00
2022-08-10T01:13:11.299Z,18.00
2022-08-10T01:15:48.103Z,18.00
2022-08-10T01:18:24.102Z,18.00
2022-08-10T01:21:29.899Z,18.00
2022-08-10T01:23:57.319Z,18.00
2022-08-10T01:26:49.548Z,17.90
2022-08-10T01:29:31.191Z,17.90
2022-08-10T01:32:05.226Z,17.90
2022-08-10T01:34:42.789Z,18.00
2022-08-10T01:37:17.125Z,17.90
2022-08-10T01:39:52.045Z,17.90
2022-08-10T01:42:21.305Z,17.90
2022-08-10T01:44:57.621Z,18.00
2022-08-10T01:47:48.622Z,17.90
2022-08-10T01:50:53.346Z,17.90
2022-08-10T01:53:53.929Z,17.90
2022-08-10T01:56:23.803Z,17.90
2022-08-10T01:58:58.094Z,17.80
2022-08-10T02:01:30.846Z,17.80
2022-08-10T02:04:04.821Z,17.80
2022-08-10T02:06:45.449Z,17.70
2022-08-10T02:09:17.405Z,17.70
2022-08-10T02:11:57.203Z,17.70
2022-08-10T02:14:49.756Z,17.70
2022-08-10T02:17:58.287Z,17.60
2022-08-10T02:20:14.305Z,17.70
2022-08-10T02:22:44.597Z,17.60
2022-08-10T02:25:40.901Z,17.70
2022-08-10T02:28:05.142Z,17.60
2022-08-10T02:30:33.728Z,17.60
2022-08-10T02:33:03.959Z,17.60
2022-08-10T02:35:54.426Z,17.50
2022-08-10T02:38:59.493Z,17.50
2022-08-10T02:45:16.071Z,17.50
2022-08-10T02:45:24.118Z,17.50
2022-08-10T02:47:23.688Z,17.50
2022-08-10T02:50:04.101Z,17.40
2022-08-10T02:52:57.235Z,17.40
2022-08-10T02:55:26.934Z,17.40
2022-08-10T02:58:16.676Z,17.40
2022-08-10T03:00:51.806Z,17.40
2022-08-10T03:03:26.246Z,17.30
2022-08-10T03:06:11.887Z,17.30
2022-08-10T03:08:43.834Z,17.40
2022-08-10T03:12:36.177Z,17.40
2022-08-10T03:14:10.755Z,17.40
2022-08-10T03:16:39.516Z,17.40
2022-08-10T03:20:33.505Z,17.70
2022-08-10T03:21:59.263Z,17.40
2022-08-10T03:24:32.956Z,17.30
2022-08-10T03:27:02.820Z,17.50
2022-08-10T03:30:28.391Z,17.40
2022-08-10T03:32:23.460Z,17.40
2022-08-10T03:34:52.336Z,17.40
2022-08-10T03:37:20.250Z,17.50
2022-08-10T03:39:47.747Z,17.40
2022-08-10T03:42:16.500Z,17.50
2022-08-10T03:44:50.220Z,17.50
2022-08-10T03:47:19.722Z,17.40
2022-08-10T03:49:49.844Z,17.40
2022-08-10T03:52:18.645Z,17.40
2022-08-10T03:54:47.171Z,17.40
2022-08-10T03:57:16.136Z,17.40
2022-08-10T03:59:43.717Z,17.40
2022-08-10T04:02:45.116Z,17.50
2022-08-10T04:05:00.373Z,17.50
2022-08-10T04:07:29.383Z,17.50
2022-08-10T04:09:59.832Z,17.40
2022-08-10T04:12:27.163Z,17.40
2022-08-10T04:14:54.572Z,17.30
2022-08-10T04:18:02.667Z,17.20
2022-08-10T04:20:17.606Z,17.40
2022-08-10T04:22:52.517Z,17.10
2022-08-10T04:25:22.983Z,16.90
2022-08-10T04:27:51.733Z,17.00
2022-08-10T04:30:19.858Z,17.00
2022-08-10T04:32:52.460Z,17.00
2022-08-10T04:35:22.667Z,16.90
2022-08-10T04:37:51.637Z,16.90
2022-08-10T04:40:28.382Z,16.90
2022-08-10T04:43:02.212Z,16.80
2022-08-10T04:45:48.263Z,16.80
2022-08-10T04:48:42.866Z,16.80
2022-08-10T04:51:17.662Z,16.80
2022-08-10T04:54:05.808Z,16.70
2022-08-10T04:56:40.018Z,16.70
2022-08-10T04:59:09.332Z,16.70
2022-08-10T05:02:21.340Z,16.70
2022-08-10T05:04:34.789Z,16.70
2022-08-10T05:07:16.773Z,16.70
2022-08-10T05:10:02.067Z,16.70
2022-08-10T05:12:38.826Z,16.70
2022-08-10T05:15:11.871Z,16.70
2022-08-10T05:17:40.609Z,16.70
2022-08-10T05:20:10.215Z,16.70
2022-08-10T05:22:42.798Z,16.70
2022-08-10T05:25:12.718Z,16.80
2022-08-10T05:27:41.211Z,16.80
2022-08-10T05:30:11.617Z,16.80
2022-08-10T05:32:58.358Z,16.70
2022-08-10T05:35:28.960Z,16.80
2022-08-10T05:38:18.247Z,16.80
2022-08-10T05:40:48.318Z,16.90
2022-08-10T05:43:18.364Z,16.80
2022-08-10T05:46:19.510Z,16.90
2022-08-10T05:48:53.980Z,16.90
2022-08-10T05:51:24.585Z,16.90
2022-08-10T05:54:02.618Z,17.00
2022-08-10T05:56:56.491Z,17.00
2022-08-10T06:00:31.106Z,17.10
2022-08-10T06:02:41.307Z,17.10
2022-08-10T06:05:17.230Z,17.10
2022-08-10T06:08:10.122Z,17.10
2022-08-10T06:12:16.722Z,14.60
2022-08-10T06:14:12.903Z,17.20
2022-08-10T06:16:36.011Z,18.00
2022-08-10T06:19:04.146Z,17.40
2022-08-10T06:21:34.584Z,17.40
2022-08-10T06:24:03.006Z,17.30
2022-08-10T06:26:30.566Z,17.50
2022-08-10T06:29:07.093Z,17.40
2022-08-10T06:31:48.137Z,17.50
2022-08-10T06:34:23.723Z,17.50
2022-08-10T06:36:53.212Z,17.60
2022-08-10T06:39:33.536Z,17.60
2022-08-10T06:42:18.544Z,17.70
2022-08-10T06:44:58.657Z,17.80
2022-08-10T06:47:34.104Z,17.80
2022-08-10T06:50:09.498Z,17.90
2022-08-10T06:52:38.425Z,17.90
2022-08-10T06:55:10.289Z,18.00
2022-08-10T06:57:40.519Z,18.00
2022-08-10T07:00:10.288Z,18.10
2022-08-10T07:02:57.480Z,18.10
2022-08-10T07:05:28.153Z,18.10
2022-08-10T07:07:59.149Z,18.20
2022-08-10T07:10:46.012Z,18.10
2022-08-10T07:14:15.458Z,18.30
2022-08-10T07:16:14.592Z,18.40
2022-08-10T07:18:45.029Z,18.40
2022-08-10T07:21:13.948Z,18.40
2022-08-10T07:23:57.053Z,18.50
2022-08-10T07:26:31.184Z,18.50
2022-08-10T07:29:03.522Z,18.60
2022-08-10T07:31:55.649Z,18.70
2022-08-10T07:34:29.114Z,18.80
2022-08-10T07:37:07.839Z,18.80
2022-08-10T07:40:02.799Z,18.90
2022-08-10T07:42:31.324Z,18.90
2022-08-10T07:44:59.982Z,19.00
2022-08-10T07:47:53.884Z,19.00
2022-08-10T07:50:25.546Z,19.00
2022-08-10T07:52:57.779Z,19.00
2022-08-10T07:56:02.142Z,19.70
2022-08-10T07:58:16.241Z,19.10
2022-08-10T08:00:46.348Z,19.20
2022-08-10T08:03:17.348Z,19.20
2022-08-10T08:05:58.346Z,19.30
2022-08-10T08:08:32.195Z,19.30
2022-08-10T08:11:00.636Z,19.30
2022-08-10T08:13:29.611Z,19.40
2022-08-10T08:16:17.021Z,19.40
2022-08-10T08:19:16.278Z,19.40
2022-08-10T08:24:06.551Z,19.80
2022-08-10T08:24:32.489Z,19.50
2022-08-10T08:27:02.405Z,19.60
2022-08-10T08:29:34.537Z,19.50
2022-08-10T08:32:06.105Z,19.60
2022-08-10T08:34:38.119Z,19.60
2022-08-10T08:37:07.297Z,19.40
2022-08-10T08:39:36.972Z,19.70
2022-08-10T08:42:26.444Z,19.70
2022-08-10T08:45:26.520Z,19.70
2022-08-10T08:48:11.724Z,19.80
2022-08-10T08:52:09.985Z,19.90
2022-08-10T08:54:51.275Z,19.90
2022-08-10T08:57:50.499Z,19.90
2022-08-10T09:00:35.938Z,20.00
2022-08-10T09:03:40.279Z,20.00
2022-08-10T09:06:40.803Z,19.70
2022-08-10T09:09:31.646Z,20.10
2022-08-10T09:12:29.307Z,20.20
2022-08-10T09:15:41.068Z,19.80
2022-08-10T09:18:05.391Z,20.10
2022-08-10T09:21:00.173Z,20.30
2022-08-10T09:24:04.479Z,20.40
2022-08-10T09:26:48.158Z,20.50
2022-08-10T09:29:25.881Z,20.50
2022-08-10T09:36:16.039Z,20.50
2022-08-10T09:36:21.269Z,20.60
2022-08-10T09:39:02.842Z,20.60
2022-08-10T09:41:40.013Z,20.70
2022-08-10T09:44:35.772Z,20.70
2022-08-10T09:48:01.408Z,20.80
2022-08-10T09:54:03.764Z,20.80
2022-08-10T09:57:02.988Z,20.90
2022-08-10T10:00:00.118Z,21.00
2022-08-10T10:02:39.210Z,21.00
2022-08-10T10:05:20.294Z,21.10
2022-08-10T10:08:02.170Z,21.10
2022-08-10T10:10:42.200Z,21.10
2022-08-10T10:14:01.869Z,20.90
2022-08-10T10:17:01.840Z,21.20
2022-08-10T10:19:57.845Z,21.20
2022-08-10T10:23:03.226Z,21.30
2022-08-10T10:25:50.830Z,21.30
2022-08-10T10:29:09.822Z,21.50
2022-08-10T10:31:36.350Z,21.50
2022-08-10T10:34:15.083Z,21.50
2022-08-10T10:36:45.321Z,21.50
2022-08-10T10:39:23.761Z,21.60
2022-08-10T10:42:28.951Z,21.60
2022-08-10T10:45:15.321Z,21.70
2022-08-10T10:48:28.977Z,21.70
2022-08-10T10:51:25.065Z,21.80
2022-08-10T10:54:03.079Z,21.80
2022-08-10T10:56:55.160Z,21.90
2022-08-10T10:59:57.395Z,21.90
2022-08-10T11:03:10.267Z,21.90
2022-08-10T11:06:03.816Z,22.10
2022-08-10T11:08:36.585Z,22.00
2022-08-10T11:12:00.031Z,22.10
2022-08-10T11:14:29.318Z,22.20
2022-08-10T11:17:17.467Z,22.20
2022-08-10T11:20:39.008Z,22.30
2022-08-10T11:23:36.509Z,22.40
2022-08-10T11:26:31.570Z,22.40
2022-08-10T11:29:10.063Z,22.40
2022-08-10T11:31:41.925Z,22.40
2022-08-10T11:34:48.931Z,22.50
2022-08-10T11:38:31.118Z,22.50
2022-08-10T11:40:53.271Z,22.50
2022-08-10T11:43:29.023Z,22.60
2022-08-10T11:46:33.467Z,22.50
2022-08-10T11:49:17.939Z,22.60
2022-08-10T11:51:53.202Z,22.70
2022-08-10T11:54:43.450Z,22.70
2022-08-10T11:57:13.036Z,22.70
2022-08-10T11:59:59.250Z,22.70
2022-08-10T12:02:39.408Z,22.80
2022-08-10T12:05:21.514Z,22.90
2022-08-10T12:10:04.071Z,23.00
2022-08-10T12:10:42.765Z,23.00
2022-08-10T12:13:16.912Z,23.00
2022-08-10T12:16:06.513Z,23.00
2022-08-10T12:19:02.058Z,23.00
2022-08-10T12:21:53.917Z,23.10
2022-08-10T12:24:29.475Z,23.10
2022-08-10T12:27:16.349Z,23.10
2022-08-10T12:30:02.051Z,23.10
2022-08-10T12:32:45.546Z,23.20
2022-08-10T12:35:22.721Z,23.20
2022-08-10T12:38:21.607Z,23.20
2022-08-10T12:41:00.938Z,23.30
2022-08-10T12:44:07.488Z,23.30
2022-08-10T12:46:46.168Z,23.30
2022-08-10T12:49:38.657Z,23.30
2022-08-10T12:52:16.912Z,23.40
2022-08-10T12:54:46.478Z,23.40
2022-08-10T12:57:22.393Z,23.40
2022-08-10T12:59:53.706Z,23.40
2022-08-10T13:02:34.029Z,23.40
2022-08-10T13:05:08.798Z,23.40
2022-08-10T13:08:25.326Z,23.50
2022-08-10T13:10:27.683Z,23.50
2022-08-10T13:12:59.062Z,23.50
2022-08-10T13:15:49.771Z,23.50
2022-08-10T13:18:55.057Z,23.60
2022-08-10T13:21:23.519Z,23.60
2022-08-10T13:24:10.906Z,23.60
2022-08-10T13:27:26.421Z,23.60
2022-08-10T13:30:07.049Z,23.70
2022-08-10T13:32:39.491Z,23.70
2022-08-10T13:35:12.649Z,23.70
2022-08-10T13:37:44.014Z,23.70
2022-08-10T13:40:15.381Z,23.70
2022-08-10T13:42:45.713Z,23.70
2022-08-10T13:45:22.676Z,23.80
2022-08-10T13:47:55.998Z,24.00
2022-08-10T13:50:32.027Z,23.80
2022-08-10T13:53:10.088Z,23.80
2022-08-10T13:55:56.422Z,23.80
2022-08-10T13:58:33.063Z,23.80
2022-08-10T14:01:09.057Z,23.80
2022-08-10T14:03:39.905Z,23.80
2022-08-10T14:06:12.940Z,23.80
2022-08-10T14:08:49.193Z,23.80
2022-08-10T14:11:44.937Z,23.90
2022-08-10T14:14:36.169Z,24.00
2022-08-10T14:17:46.028Z,23.90
2022-08-10T14:20:20.906Z,23.90
2022-08-10T14:22:49.591Z,24.00
2022-08-10T14:25:17.019Z,24.00
2022-08-10T14:28:02.172Z,23.90
2022-08-10T14:30:33.068Z,23.90
2022-08-10T14:33:04.693Z,23.90
2022-08-10T14:36:22.034Z,23.90
2022-08-10T14:38:32.097Z,23.90
2022-08-10T14:41:02.478Z,23.90
2022-08-10T14:43:40.149Z,23.90
2022-08-10T14:46:11.142Z,24.00
2022-08-10T14:48:42.305Z,24.00
2022-08-10T14:51:11.263Z,24.00
2022-08-10T14:53:43.107Z,24.00
2022-08-10T14:56:13.566Z,24.00
2022-08-10T14:59:05.784Z,24.00
2022-08-10T15:01:59.904Z,24.00
2022-08-10T15:04:28.967Z,24.00
2022-08-10T15:07:01.282Z,24.10
2022-08-10T15:10:00.516Z,24.10
2022-08-10T15:12:33.535Z,24.20
2022-08-10T15:15:03.144Z,24.20
2022-08-10T15:17:35.163Z,24.20
2022-08-10T15:20:16.211Z,24.20
2022-08-10T15:22:51.146Z,24.20
2022-08-10T15:25:26.222Z,24.20
2022-08-10T15:28:06.375Z,24.20
2022-08-10T15:30:44.171Z,24.20
2022-08-10T15:33:59.373Z,24.30
2022-08-10T15:36:43.038Z,24.30
2022-08-10T15:40:22.508Z,24.50
2022-08-10T15:42:31.534Z,24.40
2022-08-10T15:44:59.111Z,24.30
2022-08-10T15:47:45.605Z,24.40
2022-08-10T15:50:19.304Z,24.40
2022-08-10T15:53:10.048Z,24.40
2022-08-10T15:55:51.430Z,24.30
2022-08-10T15:58:50.100Z,24.30
2022-08-10T16:02:13.970Z,24.30
2022-08-10T16:04:42.075Z,24.30
2022-08-10T16:07:19.502Z,24.30
2022-08-10T16:10:22.902Z,24.30
2022-08-10T16:13:50.317Z,24.30
2022-08-10T16:15:55.370Z,24.30
2022-08-10T16:18:31.861Z,24.20
2022-08-10T16:21:02.905Z,24.20
2022-08-10T16:23:36.847Z,24.20
2022-08-10T16:26:14.862Z,24.20
2022-08-10T16:28:57.835Z,24.20
2022-08-10T16:31:28.322Z,24.20
2022-08-10T16:33:59.593Z,24.10
2022-08-10T16:36:43.192Z,24.10
2022-08-10T16:39:57.151Z,24.10
2022-08-10T16:42:14.864Z,24.10
2022-08-10T16:45:11.544Z,24.10
2022-08-10T16:47:48.111Z,24.10
2022-08-10T16:50:21.312Z,24.10
2022-08-10T16:52:52.255Z,24.00
2022-08-10T16:55:24.382Z,24.00
2022-08-10T16:58:15.205Z,24.00
2022-08-10T17:00:45.244Z,24.00
2022-08-10T17:04:04.932Z,24.00
2022-08-10T17:06:10.928Z,24.00
2022-08-10T17:08:49.073Z,24.00
2022-08-10T17:11:18.537Z,24.00
2022-08-10T17:13:46.399Z,23.90
2022-08-10T17:16:17.154Z,23.90
2022-08-10T17:18:47.060Z,23.90
2022-08-10T17:21:28.113Z,23.90
2022-08-10T17:23:58.100Z,23.90
2022-08-10T17:26:37.486Z,23.80
2022-08-10T17:29:58.166Z,23.80
2022-08-10T17:32:21.267Z,23.80
2022-08-10T17:34:53.715Z,23.80
2022-08-10T17:37:27.763Z,23.90
2022-08-10T17:40:11.496Z,23.70
2022-08-10T17:42:47.364Z,23.70
2022-08-10T17:45:46.693Z,23.70
2022-08-10T17:48:12.049Z,23.60
2022-08-10T17:50:46.123Z,23.60
2022-08-10T17:53:27.834Z,23.60
2022-08-10T17:56:18.161Z,23.60
2022-08-10T17:58:57.418Z,23.60
2022-08-10T18:01:40.293Z,23.50
2022-08-10T18:04:21.668Z,23.50
2022-08-10T18:07:13.536Z,23.40
2022-08-10T18:09:50.598Z,23.40
2022-08-10T18:12:30.198Z,23.40
2022-08-10T18:15:13.266Z,23.30
2022-08-10T18:17:46.104Z,23.30
2022-08-10T18:20:15.490Z,23.20
2022-08-10T18:22:50.874Z,23.30
2022-08-10T18:25:27.909Z,23.20
2022-08-10T18:28:03.779Z,23.10
2022-08-10T18:30:45.166Z,23.10
2022-08-10T18:33:19.133Z,23.10
2022-08-10T18:35:48.056Z,23.00
2022-08-10T18:38:17.565Z,23.00
2022-08-10T18:40:52.685Z,23.00
2022-08-10T18:44:06.047Z,22.90
2022-08-10T18:46:22.241Z,23.30
2022-08-10T18:49:08.916Z,22.90
2022-08-10T18:51:46.786Z,22.80
2022-08-10T18:54:38.912Z,22.70
2022-08-10T18:57:39.527Z,22.70
2022-08-10T19:00:12.286Z,22.70
2022-08-10T19:03:17.339Z,22.60
2022-08-10T19:06:05.683Z,22.60
2022-08-10T19:09:46.165Z,22.50
2022-08-10T19:12:31.131Z,22.50
2022-08-10T19:15:09.410Z,22.50
2022-08-10T19:18:17.909Z,22.40
2022-08-10T19:21:30.011Z,22.40
2022-08-10T19:24:04.752Z,22.70
2022-08-10T19:27:05.823Z,22.30
2022-08-10T19:30:12.393Z,22.30
2022-08-10T19:33:13.702Z,22.20
2022-08-10T19:36:13.266Z,22.10
2022-08-10T19:38:51.248Z,22.10
2022-08-10T19:41:42.194Z,22.00
2022-08-10T19:44:18.891Z,22.00
2022-08-10T19:46:59.847Z,22.00
2022-08-10T19:49:42.578Z,21.90
2022-08-10T19:52:36.383Z,21.90
2022-08-10T19:55:15.706Z,21.80
2022-08-10T19:58:07.660Z,21.70
2022-08-10T20:01:07.917Z,21.70
2022-08-10T20:03:54.738Z,21.70
2022-08-10T20:06:22.559Z,21.70
2022-08-10T20:09:10.776Z,21.60
2022-08-10T20:21:06.619Z,21.50
2022-08-10T20:27:57.826Z,21.30
2022-08-10T20:30:23.646Z,21.40
2022-08-10T20:32:59.852Z,21.30
2022-08-10T20:35:35.857Z,21.30
2022-08-10T20:38:17.437Z,21.30
2022-08-10T20:40:50.423Z,21.10
2022-08-10T20:43:20.874Z,21.20
2022-08-10T20:46:09.528Z,21.20
2022-08-10T20:48:44.411Z,21.20
2022-08-10T20:51:19.181Z,21.20
2022-08-10T20:53:52.584Z,21.10
2022-08-10T20:56:42.176Z,21.10
2022-08-10T21:00:02.355Z,21.00
2022-08-10T21:02:46.500Z,21.10
2022-08-10T21:05:43.455Z,21.00
2022-08-10T21:08:16.339Z,21.00
2022-08-10T21:11:07.090Z,21.00
2022-08-10T21:13:49.456Z,21.00
2022-08-10T21:16:25.947Z,20.90
2022-08-10T21:19:19.168Z,21.20
2022-08-10T21:22:05.301Z,20.90
2022-08-10T21:24:46.157Z,20.90
2022-08-10T21:27:43.205Z,20.80
2022-08-10T21:30:20.743Z,20.80
2022-08-10T21:33:21.634Z,20.80
2022-08-10T21:36:02.007Z,20.80
2022-08-10T21:38:47.566Z,20.70
2022-08-10T21:42:07.148Z,20.70
2022-08-10T21:45:47.503Z,20.70
2022-08-10T21:48:57.075Z,20.60
2022-08-10T21:52:29.390Z,20.60
2022-08-10T21:56:14.366Z,20.50
2022-08-10T22:16:10.891Z,20.20
2022-08-10T22:19:03.867Z,20.20
2022-08-10T22:22:07.998Z,20.20
2022-08-10T22:25:52.011Z,20.20
2022-08-10T22:28:38.648Z,20.10
2022-08-10T22:31:45.412Z,20.20
2022-08-10T22:34:51.221Z,20.00
2022-08-10T22:38:08.050Z,20.10
2022-08-10T22:40:54.292Z,20.00
2022-08-10T22:43:49.852Z,20.00
2022-08-10T22:46:46.428Z,20.00
2022-08-10T22:49:20.915Z,20.00
2022-08-10T22:51:57.925Z,20.10
2022-08-10T22:55:31.023Z,19.90
2022-08-10T22:58:17.195Z,19.90
2022-08-10T23:00:58.744Z,19.80
2022-08-10T23:03:28.327Z,19.80
2022-08-10T23:06:07.533Z,19.80
2022-08-10T23:09:04.118Z,19.80
2022-08-10T23:11:38.576Z,19.80
2022-08-10T23:14:12.082Z,19.70
2022-08-10T23:17:08.924Z,19.70
2022-08-10T23:19:45.422Z,19.60
2022-08-10T23:22:16.255Z,19.70
2022-08-10T23:24:45.781Z,19.60
2022-08-10T23:27:37.337Z,19.70
2022-08-10T23:30:10.509Z,19.60
2022-08-10T23:32:48.206Z,19.60
2022-08-10T23:36:28.089Z,20.10
2022-08-10T23:38:12.360Z,19.60
2022-08-10T23:40:49.855Z,19.50
2022-08-10T23:43:19.572Z,19.50
2022-08-10T23:45:57.154Z,19.50
2022-08-10T23:48:34.581Z,19.50
2022-08-10T23:51:16.057Z,19.40
2022-08-10T23:53:48.002Z,19.40
2022-08-10T23:56:22.382Z,19.10
2022-08-10T23:59:00.765Z,19.30
